Overseas Skopelos — V7SU9 — position and weather

sailwx.info

Track history (hours):
 
Tides and Currents Weather Stations Pressure Air Temp Water Temp Dewpoint Dewpoint Depression Visibility Wind Speed Wind Dir Waves Ship Positions

Overseas Skopelos

Last reported at 2014-Jul-13 13:28 UTC. Time now 2014-Jul-31 21:45 UTC.
Position N 29°26' W 094°50'.
Warning: this ship's position is 18 days out of date.

Length 183 m; draft 7.9 m.

Type: Tanker. MMSI: 538003726.

Date/timePositionNaut miles runAvg speedWind from/ knotsBaromVisibWave heightAir tempDewpointWater temp
2014-Jul-13 13:28N 29°26' W 094°50'8 9.2
2014-Jul-13 12:33N 29°33' W 094°55'9 9.3
2014-Jul-13 11:34N 29°42' W 094°59'7 6.6
2014-Jul-13 10:33N 29°45' W 095°06'5 5.5
2014-Jul-13 09:34N 29°45' W 095°12'0 0.3
2014-Jul-13 08:31N 29°45' W 095°12'0 0.0
2014-Jul-13 07:28N 29°45' W 095°12'0 0.0
2014-Jul-13 06:28N 29°45' W 095°12'0 0.0
2014-Jul-13 05:31N 29°45' W 095°12'0 0.0
2014-Jul-13 04:28N 29°45' W 095°12'0 0.0
2014-Jul-13 03:31N 29°45' W 095°12'0 0.0
2014-Jul-13 02:31N 29°45' W 095°12'0 0.0
2014-Jul-13 01:31N 29°45' W 095°12'0 0.0
2014-Jul-13 00:31N 29°45' W 095°12'0 0.0
2014-Jul-12 23:31N 29°45' W 095°12'0 0.0
2014-Jul-12 22:31N 29°45' W 095°12'0 0.0
2014-Jul-12 21:31N 29°45' W 095°12'0 0.0
2014-Jul-12 20:31N 29°45' W 095°12'0 0.0
2014-Jul-12 19:31N 29°45' W 095°12'0 0.0
2014-Jul-12 18:28N 29°45' W 095°12'0 0.0
2014-Jul-12 17:31N 29°45' W 095°12'0 0.0
2014-Jul-12 16:31N 29°45' W 095°12'0 0.0
2014-Jul-12 15:31N 29°45' W 095°12'0 0.0
2014-Jul-12 14:31N 29°45' W 095°12'0 0.0
2014-Jul-12 13:31N 29°45' W 095°12'0 0.0
2014-Jul-12 12:28N 29°45' W 095°12'0 0.0
2014-Jul-12 11:31N 29°45' W 095°12'0 0.0
2014-Jul-12 10:28N 29°45' W 095°12'0 0.0
2014-Jul-12 09:31N 29°45' W 095°12'0 0.0
2014-Jul-12 08:31N 29°45' W 095°12'0 0.0
2014-Jul-12 07:31N 29°45' W 095°12'0 0.0
2014-Jul-12 06:31N 29°45' W 095°12'0 0.0
2014-Jul-12 05:31N 29°45' W 095°12'0 0.0
2014-Jul-12 04:31N 29°45' W 095°12'0 0.0
2014-Jul-12 03:31N 29°45' W 095°12'0 0.0
2014-Jul-12 02:31N 29°45' W 095°12'0 0.0
2014-Jul-12 01:31N 29°45' W 095°12'0 0.0
2014-Jul-12 00:31N 29°45' W 095°12'0 0.0
2014-Jul-11 23:31N 29°45' W 095°12'0 0.0
2014-Jul-11 22:31N 29°45' W 095°12'0 0.0
2014-Jul-11 21:31N 29°45' W 095°12'0 0.0
2014-Jul-11 20:31N 29°45' W 095°12'0 0.0
2014-Jul-11 19:31N 29°45' W 095°12'0 0.0
2014-Jul-11 18:31N 29°45' W 095°12'0 0.0
2014-Jul-11 17:31N 29°45' W 095°12'0 0.0
2014-Jul-11 16:31N 29°45' W 095°12'0 0.0
2014-Jul-11 15:31N 29°45' W 095°12'0 0.0
2014-Jul-11 14:31N 29°45' W 095°12'0 0.2
2014-Jul-11 13:33N 29°44' W 095°12'6 5.8
2014-Jul-11 12:33N 29°46' W 095°05'8 7.6
2014-Jul-11 11:33N 29°41' W 094°59'1212.1
2014-Jul-11 10:33N 29°30' W 094°52'  
2014-Jul-04 12:18N 25°49' W 079°27'15 8.7
2014-Jul-04 10:33N 26°04' W 079°26'9 9.1
2014-Jul-04 09:33N 26°13' W 079°25'10 9.5
2014-Jul-04 08:33N 26°22' W 079°25'12 9.4
2014-Jul-04 07:17N 26°34' W 079°24'43 9.1
2014-Jul-04 02:33N 27°17' W 079°21'11 9.2
2014-Jul-04 01:19N 27°29' W 079°21'15 7.9
2014-Jul-03 23:21N 27°42' W 079°11'1310.4
2014-Jul-03 22:07N 27°44' W 078°57'1710.8
2014-Jul-03 20:33N 27°47' W 078°38'1211.6
2014-Jul-03 19:30N 27°50' W 078°25'  
Track history (hours):
 
Tides and Currents Weather Stations Pressure Air Temp Water Temp Dewpoint Dewpoint Depression Visibility Wind Speed Wind Dir Waves Ship Positions

Overseas Skopelos

Last reported at 2014-Jul-13 13:28 UTC. Time now 2014-Jul-31 21:45 UTC.
Position N 29°26' W 094°50'.
Warning: this ship's position is 18 days out of date.

Length 183 m; draft 7.9 m.

Type: Tanker. MMSI: 538003726.

Date/timePositionNaut miles runAvg speedWind from/ knotsBaromVisibWave heightAir tempDewpointWater temp
2014-Jul-13 13:28N 29°26' W 094°50'8 9.2
2014-Jul-13 12:33N 29°33' W 094°55'9 9.3
2014-Jul-13 11:34N 29°42' W 094°59'7 6.6
2014-Jul-13 10:33N 29°45' W 095°06'5 5.5
2014-Jul-13 09:34N 29°45' W 095°12'0 0.3
2014-Jul-13 08:31N 29°45' W 095°12'0 0.0
2014-Jul-13 07:28N 29°45' W 095°12'0 0.0
2014-Jul-13 06:28N 29°45' W 095°12'0 0.0
2014-Jul-13 05:31N 29°45' W 095°12'0 0.0
2014-Jul-13 04:28N 29°45' W 095°12'0 0.0
2014-Jul-13 03:31N 29°45' W 095°12'0 0.0
2014-Jul-13 02:31N 29°45' W 095°12'0 0.0
2014-Jul-13 01:31N 29°45' W 095°12'0 0.0
2014-Jul-13 00:31N 29°45' W 095°12'0 0.0
2014-Jul-12 23:31N 29°45' W 095°12'0 0.0
2014-Jul-12 22:31N 29°45' W 095°12'0 0.0
2014-Jul-12 21:31N 29°45' W 095°12'0 0.0
2014-Jul-12 20:31N 29°45' W 095°12'0 0.0
2014-Jul-12 19:31N 29°45' W 095°12'0 0.0
2014-Jul-12 18:28N 29°45' W 095°12'0 0.0
2014-Jul-12 17:31N 29°45' W 095°12'0 0.0
2014-Jul-12 16:31N 29°45' W 095°12'0 0.0
2014-Jul-12 15:31N 29°45' W 095°12'0 0.0
2014-Jul-12 14:31N 29°45' W 095°12'0 0.0
2014-Jul-12 13:31N 29°45' W 095°12'0 0.0
2014-Jul-12 12:28N 29°45' W 095°12'0 0.0
2014-Jul-12 11:31N 29°45' W 095°12'0 0.0
2014-Jul-12 10:28N 29°45' W 095°12'0 0.0
2014-Jul-12 09:31N 29°45' W 095°12'0 0.0
2014-Jul-12 08:31N 29°45' W 095°12'0 0.0
2014-Jul-12 07:31N 29°45' W 095°12'0 0.0
2014-Jul-12 06:31N 29°45' W 095°12'0 0.0
2014-Jul-12 05:31N 29°45' W 095°12'0 0.0
2014-Jul-12 04:31N 29°45' W 095°12'0 0.0
2014-Jul-12 03:31N 29°45' W 095°12'0 0.0
2014-Jul-12 02:31N 29°45' W 095°12'0 0.0
2014-Jul-12 01:31N 29°45' W 095°12'0 0.0
2014-Jul-12 00:31N 29°45' W 095°12'0 0.0
2014-Jul-11 23:31N 29°45' W 095°12'0 0.0
2014-Jul-11 22:31N 29°45' W 095°12'0 0.0
2014-Jul-11 21:31N 29°45' W 095°12'0 0.0
2014-Jul-11 20:31N 29°45' W 095°12'0 0.0
2014-Jul-11 19:31N 29°45' W 095°12'0 0.0
2014-Jul-11 18:31N 29°45' W 095°12'0 0.0
2014-Jul-11 17:31N 29°45' W 095°12'0 0.0
2014-Jul-11 16:31N 29°45' W 095°12'0 0.0
2014-Jul-11 15:31N 29°45' W 095°12'0 0.0
2014-Jul-11 14:31N 29°45' W 095°12'0 0.2
2014-Jul-11 13:33N 29°44' W 095°12'6 5.8
2014-Jul-11 12:33N 29°46' W 095°05'8 7.6
2014-Jul-11 11:33N 29°41' W 094°59'1212.1
2014-Jul-11 10:33N 29°30' W 094°52'  
2014-Jul-04 12:18N 25°49' W 079°27'15 8.7
2014-Jul-04 10:33N 26°04' W 079°26'9 9.1
2014-Jul-04 09:33N 26°13' W 079°25'10 9.5
2014-Jul-04 08:33N 26°22' W 079°25'12 9.4
2014-Jul-04 07:17N 26°34' W 079°24'43 9.1
2014-Jul-04 02:33N 27°17' W 079°21'11 9.2
2014-Jul-04 01:19N 27°29' W 079°21'15 7.9
2014-Jul-03 23:21N 27°42' W 079°11'1310.4
2014-Jul-03 22:07N 27°44' W 078°57'1710.8
2014-Jul-03 20:33N 27°47' W 078°38'1211.6
2014-Jul-03 19:30N 27°50' W 078°25'  

Dump ship's entire track history